sensor_id;sensor_type;location;lat;lon;timestamp;P1;durP1;ratioP1;P2;durP2;ratioP2
21299;SDS011;10809;49.476;11.016;2022-11-15T00:01:50;6.27;;;3.17;;
21299;SDS011;10809;49.476;11.016;2022-11-15T00:04:39;3.33;;;3.03;;
21299;SDS011;10809;49.476;11.016;2022-11-15T00:07:28;5.50;;;3.10;;
21299;SDS011;10809;49.476;11.016;2022-11-15T00:10:17;6.30;;;3.60;;
21299;SDS011;10809;49.476;11.016;2022-11-15T00:13:07;5.43;;;3.33;;
21299;SDS011;10809;49.476;11.016;2022-11-15T00:15:57;4.90;;;3.53;;
21299;SDS011;10809;49.476;11.016;2022-11-15T00:18:47;5.80;;;3.73;;
21299;SDS011;10809;49.476;11.016;2022-11-15T00:21:36;4.90;;;3.37;;
21299;SDS011;10809;49.476;11.016;2022-11-15T00:24:25;5.03;;;3.53;;
21299;SDS011;10809;49.476;11.016;2022-11-15T00:27:14;7.37;;;3.83;;
21299;SDS011;10809;49.476;11.016;2022-11-15T00:30:03;4.47;;;3.60;;
21299;SDS011;10809;49.476;11.016;2022-11-15T00:32:52;5.23;;;3.57;;
21299;SDS011;10809;49.476;11.016;2022-11-15T00:35:42;4.30;;;3.87;;
21299;SDS011;10809;49.476;11.016;2022-11-15T00:38:31;5.77;;;3.83;;
21299;SDS011;10809;49.476;11.016;2022-11-15T00:41:21;4.90;;;3.80;;
21299;SDS011;10809;49.476;11.016;2022-11-15T00:44:10;6.60;;;4.07;;
21299;SDS011;10809;49.476;11.016;2022-11-15T00:46:59;7.00;;;4.53;;
21299;SDS011;10809;49.476;11.016;2022-11-15T00:49:48;6.17;;;4.37;;
21299;SDS011;10809;49.476;11.016;2022-11-15T00:52:37;7.03;;;4.73;;
21299;SDS011;10809;49.476;11.016;2022-11-15T00:55:26;4.67;;;4.17;;
21299;SDS011;10809;49.476;11.016;2022-11-15T00:58:15;7.37;;;4.77;;
21299;SDS011;10809;49.476;11.016;2022-11-15T01:01:11;5.53;;;3.70;;
21299;SDS011;10809;49.476;11.016;2022-11-15T01:04:01;6.27;;;4.00;;
21299;SDS011;10809;49.476;11.016;2022-11-15T01:06:50;4.83;;;4.33;;
21299;SDS011;10809;49.476;11.016;2022-11-15T01:09:39;7.23;;;4.23;;
21299;SDS011;10809;49.476;11.016;2022-11-15T01:12:28;7.50;;;4.23;;
21299;SDS011;10809;49.476;11.016;2022-11-15T01:15:17;6.70;;;4.33;;
21299;SDS011;10809;49.476;11.016;2022-11-15T01:18:06;7.70;;;4.70;;
21299;SDS011;10809;49.476;11.016;2022-11-15T01:20:56;6.20;;;4.50;;
21299;SDS011;10809;49.476;11.016;2022-11-15T01:23:45;5.80;;;4.13;;
21299;SDS011;10809;49.476;11.016;2022-11-15T01:26:33;7.07;;;4.60;;
21299;SDS011;10809;49.476;11.016;2022-11-15T01:29:22;6.37;;;4.50;;
21299;SDS011;10809;49.476;11.016;2022-11-15T01:32:11;4.90;;;4.20;;
21299;SDS011;10809;49.476;11.016;2022-11-15T01:35:00;4.27;;;3.33;;
21299;SDS011;10809;49.476;11.016;2022-11-15T01:37:49;5.77;;;4.17;;
21299;SDS011;10809;49.476;11.016;2022-11-15T01:40:38;4.70;;;3.70;;
21299;SDS011;10809;49.476;11.016;2022-11-15T01:43:28;4.60;;;3.67;;
21299;SDS011;10809;49.476;11.016;2022-11-15T01:49:22;7.07;;;4.20;;
21299;SDS011;10809;49.476;11.016;2022-11-15T01:52:13;4.83;;;3.63;;
21299;SDS011;10809;49.476;11.016;2022-11-15T01:57:59;5.80;;;4.30;;
21299;SDS011;10809;49.476;11.016;2022-11-15T02:00:52;8.43;;;4.00;;
21299;SDS011;10809;49.476;11.016;2022-11-15T02:03:42;4.10;;;3.70;;
21299;SDS011;10809;49.476;11.016;2022-11-15T02:06:39;6.47;;;4.90;;
21299;SDS011;10809;49.476;11.016;2022-11-15T02:09:29;5.50;;;3.60;;
21299;SDS011;10809;49.476;11.016;2022-11-15T02:12:19;7.03;;;3.93;;
21299;SDS011;10809;49.476;11.016;2022-11-15T02:15:10;5.80;;;3.73;;
21299;SDS011;10809;49.476;11.016;2022-11-15T02:18:22;7.43;;;4.77;;
21299;SDS011;10809;49.476;11.016;2022-11-15T02:27:33;5.87;;;4.07;;
21299;SDS011;10809;49.476;11.016;2022-11-15T02:33:39;5.27;;;3.90;;
21299;SDS011;10809;49.476;11.016;2022-11-15T02:36:39;4.67;;;4.13;;
21299;SDS011;10809;49.476;11.016;2022-11-15T02:39:37;7.20;;;4.20;;
21299;SDS011;10809;49.476;11.016;2022-11-15T02:42:35;5.10;;;3.50;;
21299;SDS011;10809;49.476;11.016;2022-11-15T02:45:48;6.57;;;4.70;;
21299;SDS011;10809;49.476;11.016;2022-11-15T02:48:41;7.23;;;4.07;;
21299;SDS011;10809;49.476;11.016;2022-11-15T02:51:32;7.00;;;4.67;;
21299;SDS011;10809;49.476;11.016;2022-11-15T02:54:22;6.47;;;4.70;;
21299;SDS011;10809;49.476;11.016;2022-11-15T02:57:15;5.70;;;4.20;;
21299;SDS011;10809;49.476;11.016;2022-11-15T03:00:08;6.23;;;4.43;;
21299;SDS011;10809;49.476;11.016;2022-11-15T03:12:41;5.87;;;4.43;;
21299;SDS011;10809;49.476;11.016;2022-11-15T03:19:11;7.60;;;4.40;;
21299;SDS011;10809;49.476;11.016;2022-11-15T03:22:03;5.57;;;4.30;;
21299;SDS011;10809;49.476;11.016;2022-11-15T03:24:55;7.60;;;4.50;;
21299;SDS011;10809;49.476;11.016;2022-11-15T03:27:50;5.20;;;4.00;;
21299;SDS011;10809;49.476;11.016;2022-11-15T03:30:41;5.67;;;4.30;;
21299;SDS011;10809;49.476;11.016;2022-11-15T03:33:33;7.03;;;4.77;;
21299;SDS011;10809;49.476;11.016;2022-11-15T03:36:22;6.60;;;4.50;;
21299;SDS011;10809;49.476;11.016;2022-11-15T03:39:13;5.40;;;4.40;;
21299;SDS011;10809;49.476;11.016;2022-11-15T03:45:43;5.37;;;4.60;;
21299;SDS011;10809;49.476;11.016;2022-11-15T03:48:37;8.63;;;4.40;;
21299;SDS011;10809;49.476;11.016;2022-11-15T03:51:29;5.70;;;4.67;;
21299;SDS011;10809;49.476;11.016;2022-11-15T03:54:18;5.13;;;3.80;;
21299;SDS011;10809;49.476;11.016;2022-11-15T03:57:07;4.77;;;3.93;;
21299;SDS011;10809;49.476;11.016;2022-11-15T03:59:56;6.17;;;4.00;;
21299;SDS011;10809;49.476;11.016;2022-11-15T04:02:45;6.40;;;4.50;;
21299;SDS011;10809;49.476;11.016;2022-11-15T04:05:34;6.37;;;4.70;;
21299;SDS011;10809;49.476;11.016;2022-11-15T04:08:23;5.83;;;4.30;;
21299;SDS011;10809;49.476;11.016;2022-11-15T04:11:12;6.67;;;4.70;;
21299;SDS011;10809;49.476;11.016;2022-11-15T04:14:01;7.83;;;3.93;;
21299;SDS011;10809;49.476;11.016;2022-11-15T04:16:50;6.20;;;3.93;;
21299;SDS011;10809;49.476;11.016;2022-11-15T04:19:39;5.23;;;3.63;;
21299;SDS011;10809;49.476;11.016;2022-11-15T04:22:46;8.13;;;3.93;;
21299;SDS011;10809;49.476;11.016;2022-11-15T04:25:54;4.90;;;3.10;;
21299;SDS011;10809;49.476;11.016;2022-11-15T04:28:44;6.40;;;4.97;;
21299;SDS011;10809;49.476;11.016;2022-11-15T04:31:52;4.57;;;3.70;;
21299;SDS011;10809;49.476;11.016;2022-11-15T04:34:41;5.30;;;4.20;;
21299;SDS011;10809;49.476;11.016;2022-11-15T04:37:30;7.47;;;4.27;;
21299;SDS011;10809;49.476;11.016;2022-11-15T04:40:19;4.87;;;3.63;;
21299;SDS011;10809;49.476;11.016;2022-11-15T04:43:08;5.83;;;4.43;;
21299;SDS011;10809;49.476;11.016;2022-11-15T04:45:57;7.17;;;4.37;;
21299;SDS011;10809;49.476;11.016;2022-11-15T04:48:45;6.17;;;4.83;;
21299;SDS011;10809;49.476;11.016;2022-11-15T04:51:34;5.13;;;4.33;;
21299;SDS011;10809;49.476;11.016;2022-11-15T04:54:23;6.47;;;4.97;;
21299;SDS011;10809;49.476;11.016;2022-11-15T04:57:12;8.40;;;5.20;;
21299;SDS011;10809;49.476;11.016;2022-11-15T05:00:04;8.03;;;5.07;;
21299;SDS011;10809;49.476;11.016;2022-11-15T05:02:55;6.63;;;4.43;;
21299;SDS011;10809;49.476;11.016;2022-11-15T05:06:03;5.83;;;3.87;;
21299;SDS011;10809;49.476;11.016;2022-11-15T05:08:52;4.83;;;4.10;;
21299;SDS011;10809;49.476;11.016;2022-11-15T05:11:41;8.37;;;4.70;;
21299;SDS011;10809;49.476;11.016;2022-11-15T05:14:31;4.00;;;3.60;;
21299;SDS011;10809;49.476;11.016;2022-11-15T05:17:20;7.20;;;4.33;;
21299;SDS011;10809;49.476;11.016;2022-11-15T05:20:09;8.10;;;4.20;;
21299;SDS011;10809;49.476;11.016;2022-11-15T05:22:59;6.00;;;4.20;;
21299;SDS011;10809;49.476;11.016;2022-11-15T05:25:48;7.20;;;3.90;;
21299;SDS011;10809;49.476;11.016;2022-11-15T05:28:37;9.37;;;5.43;;
21299;SDS011;10809;49.476;11.016;2022-11-15T05:31:26;6.53;;;4.70;;
21299;SDS011;10809;49.476;11.016;2022-11-15T05:34:15;4.17;;;3.67;;
21299;SDS011;10809;49.476;11.016;2022-11-15T05:37:05;6.03;;;4.07;;
21299;SDS011;10809;49.476;11.016;2022-11-15T05:39:54;5.43;;;3.90;;
21299;SDS011;10809;49.476;11.016;2022-11-15T05:42:44;5.60;;;3.97;;
21299;SDS011;10809;49.476;11.016;2022-11-15T05:45:34;6.57;;;4.50;;
21299;SDS011;10809;49.476;11.016;2022-11-15T05:48:23;6.37;;;4.80;;
21299;SDS011;10809;49.476;11.016;2022-11-15T05:51:12;6.80;;;4.50;;
21299;SDS011;10809;49.476;11.016;2022-11-15T05:54:03;6.20;;;4.93;;
21299;SDS011;10809;49.476;11.016;2022-11-15T05:56:52;6.90;;;4.57;;
21299;SDS011;10809;49.476;11.016;2022-11-15T05:59:42;8.40;;;4.97;;
21299;SDS011;10809;49.476;11.016;2022-11-15T06:02:32;6.10;;;4.67;;
21299;SDS011;10809;49.476;11.016;2022-11-15T06:05:21;7.97;;;5.07;;
21299;SDS011;10809;49.476;11.016;2022-11-15T06:08:10;8.23;;;5.20;;
21299;SDS011;10809;49.476;11.016;2022-11-15T06:11:02;7.33;;;4.90;;
21299;SDS011;10809;49.476;11.016;2022-11-15T06:13:54;6.23;;;4.63;;
21299;SDS011;10809;49.476;11.016;2022-11-15T06:16:44;6.47;;;4.47;;
21299;SDS011;10809;49.476;11.016;2022-11-15T06:19:33;6.60;;;4.63;;
21299;SDS011;10809;49.476;11.016;2022-11-15T06:22:23;10.23;;;5.17;;
21299;SDS011;10809;49.476;11.016;2022-11-15T06:25:12;6.70;;;4.67;;
21299;SDS011;10809;49.476;11.016;2022-11-15T06:28:00;6.07;;;4.37;;
21299;SDS011;10809;49.476;11.016;2022-11-15T06:30:49;7.17;;;4.93;;
21299;SDS011;10809;49.476;11.016;2022-11-15T06:33:39;8.50;;;4.90;;
21299;SDS011;10809;49.476;11.016;2022-11-15T06:36:28;7.47;;;5.10;;
21299;SDS011;10809;49.476;11.016;2022-11-15T06:39:17;8.10;;;5.00;;
21299;SDS011;10809;49.476;11.016;2022-11-15T06:42:08;7.33;;;4.60;;
21299;SDS011;10809;49.476;11.016;2022-11-15T06:44:57;11.10;;;4.97;;
21299;SDS011;10809;49.476;11.016;2022-11-15T06:47:46;7.00;;;3.83;;
21299;SDS011;10809;49.476;11.016;2022-11-15T06:50:35;6.77;;;5.33;;
21299;SDS011;10809;49.476;11.016;2022-11-15T06:53:24;8.33;;;4.30;;
21299;SDS011;10809;49.476;11.016;2022-11-15T06:56:13;11.77;;;5.77;;
21299;SDS011;10809;49.476;11.016;2022-11-15T06:59:02;9.47;;;5.83;;
21299;SDS011;10809;49.476;11.016;2022-11-15T07:01:51;12.73;;;7.20;;
21299;SDS011;10809;49.476;11.016;2022-11-15T07:04:40;8.43;;;5.90;;
21299;SDS011;10809;49.476;11.016;2022-11-15T07:07:29;6.30;;;4.70;;
21299;SDS011;10809;49.476;11.016;2022-11-15T07:10:18;5.80;;;3.83;;
21299;SDS011;10809;49.476;11.016;2022-11-15T07:13:07;4.87;;;4.13;;
21299;SDS011;10809;49.476;11.016;2022-11-15T07:15:57;5.83;;;3.30;;
21299;SDS011;10809;49.476;11.016;2022-11-15T07:18:46;4.70;;;3.37;;
21299;SDS011;10809;49.476;11.016;2022-11-15T07:21:35;8.80;;;4.00;;
21299;SDS011;10809;49.476;11.016;2022-11-15T07:24:24;10.17;;;3.93;;
21299;SDS011;10809;49.476;11.016;2022-11-15T07:27:13;7.17;;;3.70;;
21299;SDS011;10809;49.476;11.016;2022-11-15T07:30:02;7.03;;;3.83;;
21299;SDS011;10809;49.476;11.016;2022-11-15T07:32:53;9.23;;;4.43;;
21299;SDS011;10809;49.476;11.016;2022-11-15T07:35:46;5.63;;;3.60;;
21299;SDS011;10809;49.476;11.016;2022-11-15T07:38:37;6.30;;;3.83;;
21299;SDS011;10809;49.476;11.016;2022-11-15T07:41:26;5.90;;;3.80;;
21299;SDS011;10809;49.476;11.016;2022-11-15T07:44:15;5.43;;;3.50;;
21299;SDS011;10809;49.476;11.016;2022-11-15T07:47:04;5.90;;;3.57;;
21299;SDS011;10809;49.476;11.016;2022-11-15T07:49:53;4.33;;;2.87;;
21299;SDS011;10809;49.476;11.016;2022-11-15T07:52:42;5.23;;;2.97;;
21299;SDS011;10809;49.476;11.016;2022-11-15T07:55:32;4.97;;;3.20;;
21299;SDS011;10809;49.476;11.016;2022-11-15T07:58:20;4.17;;;2.97;;
21299;SDS011;10809;49.476;11.016;2022-11-15T08:01:09;5.30;;;3.63;;
21299;SDS011;10809;49.476;11.016;2022-11-15T08:03:58;4.93;;;3.30;;
21299;SDS011;10809;49.476;11.016;2022-11-15T08:06:47;5.37;;;3.80;;
21299;SDS011;10809;49.476;11.016;2022-11-15T08:09:36;6.90;;;4.00;;
21299;SDS011;10809;49.476;11.016;2022-11-15T08:12:25;7.23;;;3.63;;
21299;SDS011;10809;49.476;11.016;2022-11-15T08:15:14;6.27;;;4.30;;
21299;SDS011;10809;49.476;11.016;2022-11-15T08:18:04;5.03;;;3.77;;
21299;SDS011;10809;49.476;11.016;2022-11-15T08:21:00;4.97;;;3.47;;
21299;SDS011;10809;49.476;11.016;2022-11-15T08:23:50;6.77;;;3.90;;
21299;SDS011;10809;49.476;11.016;2022-11-15T08:26:39;5.97;;;4.03;;
21299;SDS011;10809;49.476;11.016;2022-11-15T08:29:27;9.30;;;3.83;;
21299;SDS011;10809;49.476;11.016;2022-11-15T08:32:17;6.67;;;3.90;;
21299;SDS011;10809;49.476;11.016;2022-11-15T08:35:06;4.20;;;3.50;;
21299;SDS011;10809;49.476;11.016;2022-11-15T08:37:55;5.33;;;3.43;;
21299;SDS011;10809;49.476;11.016;2022-11-15T08:40:44;7.23;;;3.87;;
21299;SDS011;10809;49.476;11.016;2022-11-15T08:43:33;4.10;;;3.03;;
21299;SDS011;10809;49.476;11.016;2022-11-15T08:46:22;4.77;;;3.50;;
21299;SDS011;10809;49.476;11.016;2022-11-15T08:49:11;4.97;;;4.10;;
21299;SDS011;10809;49.476;11.016;2022-11-15T08:52:00;6.37;;;3.60;;
21299;SDS011;10809;49.476;11.016;2022-11-15T08:54:49;8.57;;;4.97;;
21299;SDS011;10809;49.476;11.016;2022-11-15T08:57:38;6.90;;;3.70;;
21299;SDS011;10809;49.476;11.016;2022-11-15T09:00:27;6.03;;;3.87;;
21299;SDS011;10809;49.476;11.016;2022-11-15T09:03:16;4.60;;;3.20;;
21299;SDS011;10809;49.476;11.016;2022-11-15T09:06:05;13.83;;;4.13;;
21299;SDS011;10809;49.476;11.016;2022-11-15T09:08:54;7.60;;;4.43;;
21299;SDS011;10809;49.476;11.016;2022-11-15T09:11:43;6.23;;;3.57;;
21299;SDS011;10809;49.476;11.016;2022-11-15T09:14:32;5.30;;;3.70;;
21299;SDS011;10809;49.476;11.016;2022-11-15T09:17:21;4.07;;;3.23;;
21299;SDS011;10809;49.476;11.016;2022-11-15T09:20:10;3.77;;;3.07;;
21299;SDS011;10809;49.476;11.016;2022-11-15T09:23:00;4.10;;;3.30;;
21299;SDS011;10809;49.476;11.016;2022-11-15T09:25:50;3.57;;;2.83;;
21299;SDS011;10809;49.476;11.016;2022-11-15T09:28:39;7.27;;;3.53;;
21299;SDS011;10809;49.476;11.016;2022-11-15T09:31:30;2.60;;;2.30;;
21299;SDS011;10809;49.476;11.016;2022-11-15T09:34:19;2.77;;;2.30;;
21299;SDS011;10809;49.476;11.016;2022-11-15T09:37:09;2.73;;;2.53;;
21299;SDS011;10809;49.476;11.016;2022-11-15T09:39:58;3.10;;;2.77;;
21299;SDS011;10809;49.476;11.016;2022-11-15T09:48:58;3.70;;;2.73;;
21299;SDS011;10809;49.476;11.016;2022-11-15T09:51:45;3.47;;;3.13;;
21299;SDS011;10809;49.476;11.016;2022-11-15T09:57:19;3.60;;;2.80;;
21299;SDS011;10809;49.476;11.016;2022-11-15T10:00:02;3.03;;;2.47;;
21299;SDS011;10809;49.476;11.016;2022-11-15T10:05:14;2.50;;;2.20;;
21299;SDS011;10809;49.476;11.016;2022-11-15T10:07:51;3.63;;;2.50;;
21299;SDS011;10809;49.476;11.016;2022-11-15T10:10:47;3.87;;;2.87;;
21299;SDS011;10809;49.476;11.016;2022-11-15T10:13:25;4.57;;;3.20;;
21299;SDS011;10809;49.476;11.016;2022-11-15T10:18:55;3.23;;;2.80;;
21299;SDS011;10809;49.476;11.016;2022-11-15T10:21:35;5.10;;;2.80;;
21299;SDS011;10809;49.476;11.016;2022-11-15T10:24:11;2.57;;;2.37;;
21299;SDS011;10809;49.476;11.016;2022-11-15T10:26:47;2.90;;;2.47;;
21299;SDS011;10809;49.476;11.016;2022-11-15T10:29:19;3.30;;;2.80;;
21299;SDS011;10809;49.476;11.016;2022-11-15T10:31:50;3.87;;;2.40;;
21299;SDS011;10809;49.476;11.016;2022-11-15T10:34:21;6.00;;;2.80;;
21299;SDS011;10809;49.476;11.016;2022-11-15T10:36:57;2.20;;;2.00;;
21299;SDS011;10809;49.476;11.016;2022-11-15T10:39:28;3.20;;;2.17;;
21299;SDS011;10809;49.476;11.016;2022-11-15T10:42:14;2.33;;;2.13;;
21299;SDS011;10809;49.476;11.016;2022-11-15T10:44:58;4.03;;;2.50;;
21299;SDS011;10809;49.476;11.016;2022-11-15T10:47:30;3.07;;;2.43;;
21299;SDS011;10809;49.476;11.016;2022-11-15T10:50:04;2.83;;;2.23;;
21299;SDS011;10809;49.476;11.016;2022-11-15T10:52:37;2.53;;;2.30;;
21299;SDS011;10809;49.476;11.016;2022-11-15T10:57:50;2.73;;;2.00;;
21299;SDS011;10809;49.476;11.016;2022-11-15T11:00:26;3.20;;;1.77;;
21299;SDS011;10809;49.476;11.016;2022-11-15T11:03:03;2.23;;;1.67;;
21299;SDS011;10809;49.476;11.016;2022-11-15T11:05:37;5.43;;;2.30;;
21299;SDS011;10809;49.476;11.016;2022-11-15T11:10:46;5.67;;;1.87;;
21299;SDS011;10809;49.476;11.016;2022-11-15T11:18:57;1.80;;;1.70;;
21299;SDS011;10809;49.476;11.016;2022-11-15T11:46:59;2.25;;;1.40;;
21299;SDS011;10809;49.476;11.016;2022-11-15T11:54:59;1.25;;;1.15;;
21299;SDS011;10809;49.476;11.016;2022-11-15T12:05:35;2.80;;;1.38;;
21299;SDS011;10809;49.476;11.016;2022-11-15T12:11:15;2.63;;;1.10;;
21299;SDS011;10809;49.476;11.016;2022-11-15T12:13:48;1.17;;;1.02;;
21299;SDS011;10809;49.476;11.016;2022-11-15T12:16:22;1.85;;;1.63;;
21299;SDS011;10809;49.476;11.016;2022-11-15T12:19:00;2.03;;;1.02;;
21299;SDS011;10809;49.476;11.016;2022-11-15T12:25:18;1.10;;;1.08;;
21299;SDS011;10809;49.476;11.016;2022-11-15T12:28:03;2.22;;;1.38;;
21299;SDS011;10809;49.476;11.016;2022-11-15T12:30:49;0.85;;;0.85;;
21299;SDS011;10809;49.476;11.016;2022-11-15T12:33:57;2.00;;;1.27;;
21299;SDS011;10809;49.476;11.016;2022-11-15T12:36:40;3.03;;;1.10;;
21299;SDS011;10809;49.476;11.016;2022-11-15T12:39:13;2.47;;;1.17;;
21299;SDS011;10809;49.476;11.016;2022-11-15T12:52:13;1.47;;;1.37;;
21299;SDS011;10809;49.476;11.016;2022-11-15T12:54:50;2.43;;;1.20;;
21299;SDS011;10809;49.476;11.016;2022-11-15T12:57:30;1.67;;;1.52;;
21299;SDS011;10809;49.476;11.016;2022-11-15T13:02:45;1.33;;;1.17;;
21299;SDS011;10809;49.476;11.016;2022-11-15T13:12:49;1.77;;;1.47;;
21299;SDS011;10809;49.476;11.016;2022-11-15T13:17:52;2.03;;;1.30;;
21299;SDS011;10809;49.476;11.016;2022-11-15T13:28:29;2.77;;;1.90;;
21299;SDS011;10809;49.476;11.016;2022-11-15T13:31:24;5.30;;;2.53;;
21299;SDS011;10809;49.476;11.016;2022-11-15T13:34:01;6.10;;;1.80;;
21299;SDS011;10809;49.476;11.016;2022-11-15T13:36:44;3.40;;;1.80;;
21299;SDS011;10809;49.476;11.016;2022-11-15T13:39:33;2.37;;;1.70;;
21299;SDS011;10809;49.476;11.016;2022-11-15T13:42:13;5.87;;;2.07;;
21299;SDS011;10809;49.476;11.016;2022-11-15T13:44:58;2.73;;;1.57;;
21299;SDS011;10809;49.476;11.016;2022-11-15T13:47:31;2.80;;;1.70;;
21299;SDS011;10809;49.476;11.016;2022-11-15T13:50:01;2.10;;;1.70;;
21299;SDS011;10809;49.476;11.016;2022-11-15T13:52:34;2.70;;;1.87;;
21299;SDS011;10809;49.476;11.016;2022-11-15T13:55:13;3.73;;;2.47;;
21299;SDS011;10809;49.476;11.016;2022-11-15T13:57:48;2.87;;;2.40;;
21299;SDS011;10809;49.476;11.016;2022-11-15T14:00:26;3.00;;;2.00;;
21299;SDS011;10809;49.476;11.016;2022-11-15T14:08:34;3.27;;;2.10;;
21299;SDS011;10809;49.476;11.016;2022-11-15T14:11:15;3.60;;;2.13;;
21299;SDS011;10809;49.476;11.016;2022-11-15T14:14:01;2.07;;;1.70;;
21299;SDS011;10809;49.476;11.016;2022-11-15T14:16:43;3.53;;;1.53;;
21299;SDS011;10809;49.476;11.016;2022-11-15T14:30:46;4.70;;;1.50;;
21299;SDS011;10809;49.476;11.016;2022-11-15T14:33:21;3.30;;;1.60;;
21299;SDS011;10809;49.476;11.016;2022-11-15T14:36:13;3.93;;;1.67;;
21299;SDS011;10809;49.476;11.016;2022-11-15T14:38:45;2.93;;;1.80;;
21299;SDS011;10809;49.476;11.016;2022-11-15T14:43:54;3.53;;;1.70;;
21299;SDS011;10809;49.476;11.016;2022-11-15T14:46:24;2.30;;;1.80;;
21299;SDS011;10809;49.476;11.016;2022-11-15T14:48:54;4.70;;;1.73;;
21299;SDS011;10809;49.476;11.016;2022-11-15T14:51:25;3.03;;;1.73;;
21299;SDS011;10809;49.476;11.016;2022-11-15T14:53:56;2.13;;;1.90;;
21299;SDS011;10809;49.476;11.016;2022-11-15T14:56:26;7.67;;;2.23;;
21299;SDS011;10809;49.476;11.016;2022-11-15T14:58:57;5.07;;;2.03;;
21299;SDS011;10809;49.476;11.016;2022-11-15T15:01:28;4.13;;;2.50;;
21299;SDS011;10809;49.476;11.016;2022-11-15T15:03:58;4.93;;;2.30;;
21299;SDS011;10809;49.476;11.016;2022-11-15T15:06:29;2.97;;;1.83;;
21299;SDS011;10809;49.476;11.016;2022-11-15T15:09:00;2.30;;;1.90;;
21299;SDS011;10809;49.476;11.016;2022-11-15T15:11:31;2.43;;;1.87;;
21299;SDS011;10809;49.476;11.016;2022-11-15T15:14:01;3.17;;;2.10;;
21299;SDS011;10809;49.476;11.016;2022-11-15T15:16:32;2.80;;;2.00;;
21299;SDS011;10809;49.476;11.016;2022-11-15T15:19:02;2.83;;;2.13;;
21299;SDS011;10809;49.476;11.016;2022-11-15T15:21:33;3.90;;;1.80;;
21299;SDS011;10809;49.476;11.016;2022-11-15T15:24:04;4.33;;;2.20;;
21299;SDS011;10809;49.476;11.016;2022-11-15T15:26:34;2.93;;;1.87;;
21299;SDS011;10809;49.476;11.016;2022-11-15T15:29:06;2.67;;;1.97;;
21299;SDS011;10809;49.476;11.016;2022-11-15T15:31:38;2.33;;;1.97;;
21299;SDS011;10809;49.476;11.016;2022-11-15T15:34:09;2.40;;;2.00;;
21299;SDS011;10809;49.476;11.016;2022-11-15T15:36:39;4.80;;;2.53;;
21299;SDS011;10809;49.476;11.016;2022-11-15T15:39:09;3.37;;;2.77;;
21299;SDS011;10809;49.476;11.016;2022-11-15T15:41:41;4.00;;;2.70;;
21299;SDS011;10809;49.476;11.016;2022-11-15T15:44:11;4.43;;;2.73;;
21299;SDS011;10809;49.476;11.016;2022-11-15T15:46:42;6.67;;;3.57;;
21299;SDS011;10809;49.476;11.016;2022-11-15T15:49:12;6.30;;;2.73;;
21299;SDS011;10809;49.476;11.016;2022-11-15T15:51:42;5.37;;;3.37;;
21299;SDS011;10809;49.476;11.016;2022-11-15T15:54:13;8.70;;;3.20;;
21299;SDS011;10809;49.476;11.016;2022-11-15T15:56:44;5.07;;;2.60;;
21299;SDS011;10809;49.476;11.016;2022-11-15T15:59:14;4.87;;;3.20;;
21299;SDS011;10809;49.476;11.016;2022-11-15T16:01:45;6.03;;;3.00;;
21299;SDS011;10809;49.476;11.016;2022-11-15T16:04:15;5.50;;;3.00;;
21299;SDS011;10809;49.476;11.016;2022-11-15T16:06:45;6.47;;;2.97;;
21299;SDS011;10809;49.476;11.016;2022-11-15T16:09:16;5.60;;;3.50;;
21299;SDS011;10809;49.476;11.016;2022-11-15T16:11:48;3.80;;;2.90;;
21299;SDS011;10809;49.476;11.016;2022-11-15T16:14:18;4.90;;;3.27;;
21299;SDS011;10809;49.476;11.016;2022-11-15T16:16:48;5.33;;;3.30;;
21299;SDS011;10809;49.476;11.016;2022-11-15T16:19:19;6.07;;;3.23;;
21299;SDS011;10809;49.476;11.016;2022-11-15T16:21:49;9.00;;;3.60;;
21299;SDS011;10809;49.476;11.016;2022-11-15T16:24:22;5.50;;;3.37;;
21299;SDS011;10809;49.476;11.016;2022-11-15T16:26:52;5.53;;;3.67;;
21299;SDS011;10809;49.476;11.016;2022-11-15T16:29:22;5.40;;;3.60;;
21299;SDS011;10809;49.476;11.016;2022-11-15T16:31:53;5.50;;;4.33;;
21299;SDS011;10809;49.476;11.016;2022-11-15T16:34:23;6.50;;;3.87;;
21299;SDS011;10809;49.476;11.016;2022-11-15T16:36:54;5.47;;;4.03;;
21299;SDS011;10809;49.476;11.016;2022-11-15T16:39:25;9.30;;;4.60;;
21299;SDS011;10809;49.476;11.016;2022-11-15T16:41:57;11.57;;;7.67;;
21299;SDS011;10809;49.476;11.016;2022-11-15T16:44:28;10.07;;;6.33;;
21299;SDS011;10809;49.476;11.016;2022-11-15T16:46:59;6.57;;;5.30;;
21299;SDS011;10809;49.476;11.016;2022-11-15T16:49:31;7.93;;;5.00;;
21299;SDS011;10809;49.476;11.016;2022-11-15T16:52:02;9.17;;;4.97;;
21299;SDS011;10809;49.476;11.016;2022-11-15T16:54:32;11.77;;;5.00;;
21299;SDS011;10809;49.476;11.016;2022-11-15T16:57:03;8.43;;;5.60;;
21299;SDS011;10809;49.476;11.016;2022-11-15T16:59:33;12.97;;;6.50;;
21299;SDS011;10809;49.476;11.016;2022-11-15T17:02:04;10.53;;;5.40;;
21299;SDS011;10809;49.476;11.016;2022-11-15T17:04:40;9.37;;;5.00;;
21299;SDS011;10809;49.476;11.016;2022-11-15T17:07:11;9.60;;;4.70;;
21299;SDS011;10809;49.476;11.016;2022-11-15T17:09:41;8.93;;;4.67;;
21299;SDS011;10809;49.476;11.016;2022-11-15T17:12:11;6.80;;;4.50;;
21299;SDS011;10809;49.476;11.016;2022-11-15T17:14:43;8.77;;;5.10;;
21299;SDS011;10809;49.476;11.016;2022-11-15T17:17:16;6.77;;;4.60;;
21299;SDS011;10809;49.476;11.016;2022-11-15T17:19:46;7.10;;;4.50;;
21299;SDS011;10809;49.476;11.016;2022-11-15T17:22:16;6.07;;;4.10;;
21299;SDS011;10809;49.476;11.016;2022-11-15T17:24:47;6.00;;;4.07;;
21299;SDS011;10809;49.476;11.016;2022-11-15T17:27:17;5.50;;;4.23;;
21299;SDS011;10809;49.476;11.016;2022-11-15T17:29:48;6.53;;;3.70;;
21299;SDS011;10809;49.476;11.016;2022-11-15T17:32:18;6.83;;;4.60;;
21299;SDS011;10809;49.476;11.016;2022-11-15T17:34:49;7.67;;;4.07;;
21299;SDS011;10809;49.476;11.016;2022-11-15T17:37:19;8.40;;;4.40;;
21299;SDS011;10809;49.476;11.016;2022-11-15T17:39:49;6.13;;;4.13;;
21299;SDS011;10809;49.476;11.016;2022-11-15T17:42:20;10.50;;;5.13;;
21299;SDS011;10809;49.476;11.016;2022-11-15T17:44:50;7.67;;;5.60;;
21299;SDS011;10809;49.476;11.016;2022-11-15T17:47:20;7.13;;;5.43;;
21299;SDS011;10809;49.476;11.016;2022-11-15T17:49:51;11.43;;;6.37;;
21299;SDS011;10809;49.476;11.016;2022-11-15T17:52:21;14.47;;;7.33;;
21299;SDS011;10809;49.476;11.016;2022-11-15T17:54:51;14.33;;;7.33;;
21299;SDS011;10809;49.476;11.016;2022-11-15T17:57:22;12.87;;;5.97;;
21299;SDS011;10809;49.476;11.016;2022-11-15T17:59:52;9.70;;;5.50;;
21299;SDS011;10809;49.476;11.016;2022-11-15T18:02:23;9.30;;;5.27;;
21299;SDS011;10809;49.476;11.016;2022-11-15T18:04:53;9.10;;;5.30;;
21299;SDS011;10809;49.476;11.016;2022-11-15T18:07:23;6.57;;;4.57;;
21299;SDS011;10809;49.476;11.016;2022-11-15T18:09:54;9.67;;;5.50;;
21299;SDS011;10809;49.476;11.016;2022-11-15T18:12:24;6.93;;;4.77;;
21299;SDS011;10809;49.476;11.016;2022-11-15T18:14:54;5.80;;;4.33;;
21299;SDS011;10809;49.476;11.016;2022-11-15T18:17:25;6.30;;;4.77;;
21299;SDS011;10809;49.476;11.016;2022-11-15T18:19:55;6.87;;;5.00;;
21299;SDS011;10809;49.476;11.016;2022-11-15T18:22:26;5.20;;;4.13;;
21299;SDS011;10809;49.476;11.016;2022-11-15T18:24:56;7.10;;;4.87;;
21299;SDS011;10809;49.476;11.016;2022-11-15T18:27:26;9.33;;;5.20;;
21299;SDS011;10809;49.476;11.016;2022-11-15T18:29:57;8.57;;;5.20;;
21299;SDS011;10809;49.476;11.016;2022-11-15T18:32:27;5.47;;;4.40;;
21299;SDS011;10809;49.476;11.016;2022-11-15T18:34:57;6.03;;;4.40;;
21299;SDS011;10809;49.476;11.016;2022-11-15T18:37:28;5.43;;;3.77;;
21299;SDS011;10809;49.476;11.016;2022-11-15T18:39:58;5.57;;;3.77;;